sensor_id;sensor_type;location;lat;lon;timestamp;temperature;humidity
4183;DHT22;2105;52.300;9.182;2024-02-15T00:02:10;11.80;99.90
4183;DHT22;2105;52.300;9.182;2024-02-15T00:04:36;11.80;99.90
4183;DHT22;2105;52.300;9.182;2024-02-15T00:07:03;11.80;99.90
4183;DHT22;2105;52.300;9.182;2024-02-15T00:09:31;11.80;99.90
4183;DHT22;2105;52.300;9.182;2024-02-15T00:11:58;11.80;99.90
4183;DHT22;2105;52.300;9.182;2024-02-15T00:14:25;11.80;99.90
4183;DHT22;2105;52.300;9.182;2024-02-15T00:16:53;11.80;99.90
4183;DHT22;2105;52.300;9.182;2024-02-15T00:19:20;11.80;99.90
4183;DHT22;2105;52.300;9.182;2024-02-15T00:21:47;11.80;99.90
4183;DHT22;2105;52.300;9.182;2024-02-15T00:24:14;11.80;99.90
4183;DHT22;2105;52.300;9.182;2024-02-15T00:26:42;11.80;99.90
4183;DHT22;2105;52.300;9.182;2024-02-15T00:29:10;11.80;99.90
4183;DHT22;2105;52.300;9.182;2024-02-15T00:31:36;11.80;99.90
4183;DHT22;2105;52.300;9.182;2024-02-15T00:34:03;11.80;99.90
4183;DHT22;2105;52.300;9.182;2024-02-15T00:36:31;11.80;99.90
4183;DHT22;2105;52.300;9.182;2024-02-15T00:38:58;11.90;99.90
4183;DHT22;2105;52.300;9.182;2024-02-15T00:41:25;11.80;99.90
4183;DHT22;2105;52.300;9.182;2024-02-15T00:43:54;11.90;99.90
4183;DHT22;2105;52.300;9.182;2024-02-15T00:46:21;11.90;99.90
4183;DHT22;2105;52.300;9.182;2024-02-15T00:48:47;11.80;99.90
4183;DHT22;2105;52.300;9.182;2024-02-15T00:51:14;11.80;99.90
4183;DHT22;2105;52.300;9.182;2024-02-15T00:53:41;11.80;99.90
4183;DHT22;2105;52.300;9.182;2024-02-15T00:56:07;11.80;99.90
4183;DHT22;2105;52.300;9.182;2024-02-15T00:58:34;11.80;99.90
4183;DHT22;2105;52.300;9.182;2024-02-15T01:01:02;11.80;99.90
4183;DHT22;2105;52.300;9.182;2024-02-15T01:03:29;11.90;99.90
4183;DHT22;2105;52.300;9.182;2024-02-15T01:05:56;11.90;99.90
4183;DHT22;2105;52.300;9.182;2024-02-15T01:08:22;11.80;99.90
4183;DHT22;2105;52.300;9.182;2024-02-15T01:10:49;11.90;99.90
4183;DHT22;2105;52.300;9.182;2024-02-15T01:13:18;11.90;99.90
4183;DHT22;2105;52.300;9.182;2024-02-15T01:15:45;11.90;99.90
4183;DHT22;2105;52.300;9.182;2024-02-15T01:18:13;11.90;99.90
4183;DHT22;2105;52.300;9.182;2024-02-15T01:20:40;11.90;99.90
4183;DHT22;2105;52.300;9.182;2024-02-15T01:23:06;11.80;99.90
4183;DHT22;2105;52.300;9.182;2024-02-15T01:25:34;11.80;99.90
4183;DHT22;2105;52.300;9.182;2024-02-15T01:28:01;11.80;99.90
4183;DHT22;2105;52.300;9.182;2024-02-15T01:30:28;11.90;99.90
4183;DHT22;2105;52.300;9.182;2024-02-15T01:32:55;11.80;99.90
4183;DHT22;2105;52.300;9.182;2024-02-15T01:35:23;11.90;99.90
4183;DHT22;2105;52.300;9.182;2024-02-15T01:37:50;11.90;99.90
4183;DHT22;2105;52.300;9.182;2024-02-15T01:40:16;11.90;99.90
4183;DHT22;2105;52.300;9.182;2024-02-15T01:42:45;11.90;99.90
4183;DHT22;2105;52.300;9.182;2024-02-15T01:45:11;11.90;99.90
4183;DHT22;2105;52.300;9.182;2024-02-15T01:47:38;11.90;99.90
4183;DHT22;2105;52.300;9.182;2024-02-15T01:50:07;11.90;99.90
4183;DHT22;2105;52.300;9.182;2024-02-15T01:52:35;11.90;99.90
4183;DHT22;2105;52.300;9.182;2024-02-15T01:55:03;11.90;99.90
4183;DHT22;2105;52.300;9.182;2024-02-15T01:57:33;11.90;99.90
4183;DHT22;2105;52.300;9.182;2024-02-15T02:00:00;11.90;99.90
4183;DHT22;2105;52.300;9.182;2024-02-15T02:02:32;11.90;99.90
4183;DHT22;2105;52.300;9.182;2024-02-15T02:04:59;11.90;99.90
4183;DHT22;2105;52.300;9.182;2024-02-15T02:07:26;11.90;99.90
4183;DHT22;2105;52.300;9.182;2024-02-15T02:09:54;11.90;99.90
4183;DHT22;2105;52.300;9.182;2024-02-15T02:12:22;11.90;99.90
4183;DHT22;2105;52.300;9.182;2024-02-15T02:14:50;11.90;99.90
4183;DHT22;2105;52.300;9.182;2024-02-15T02:17:17;12.10;99.90
4183;DHT22;2105;52.300;9.182;2024-02-15T02:19:45;11.90;99.90
4183;DHT22;2105;52.300;9.182;2024-02-15T02:22:13;11.90;99.90
4183;DHT22;2105;52.300;9.182;2024-02-15T02:25:01;11.90;99.90
4183;DHT22;2105;52.300;9.182;2024-02-15T02:27:29;11.90;99.90
4183;DHT22;2105;52.300;9.182;2024-02-15T02:29:56;11.90;99.90
4183;DHT22;2105;52.300;9.182;2024-02-15T02:32:24;11.90;99.90
4183;DHT22;2105;52.300;9.182;2024-02-15T02:34:51;11.90;99.90
4183;DHT22;2105;52.300;9.182;2024-02-15T02:37:19;11.90;99.90
4183;DHT22;2105;52.300;9.182;2024-02-15T02:39:46;11.90;99.90
4183;DHT22;2105;52.300;9.182;2024-02-15T02:42:14;11.90;99.90
4183;DHT22;2105;52.300;9.182;2024-02-15T02:44:41;11.90;99.90
4183;DHT22;2105;52.300;9.182;2024-02-15T02:47:07;11.90;99.90
4183;DHT22;2105;52.300;9.182;2024-02-15T02:49:35;11.90;99.90
4183;DHT22;2105;52.300;9.182;2024-02-15T02:52:02;11.90;99.90
4183;DHT22;2105;52.300;9.182;2024-02-15T02:54:29;11.90;99.90
4183;DHT22;2105;52.300;9.182;2024-02-15T02:56:56;11.90;99.90
4183;DHT22;2105;52.300;9.182;2024-02-15T02:59:24;11.90;99.90
4183;DHT22;2105;52.300;9.182;2024-02-15T03:01:51;11.90;99.90
4183;DHT22;2105;52.300;9.182;2024-02-15T03:04:18;11.90;99.90
4183;DHT22;2105;52.300;9.182;2024-02-15T03:06:45;11.90;99.90
4183;DHT22;2105;52.300;9.182;2024-02-15T03:09:12;11.90;99.90
4183;DHT22;2105;52.300;9.182;2024-02-15T03:11:40;11.90;99.90
4183;DHT22;2105;52.300;9.182;2024-02-15T03:14:06;11.90;99.90
4183;DHT22;2105;52.300;9.182;2024-02-15T03:16:34;11.90;99.90
4183;DHT22;2105;52.300;9.182;2024-02-15T03:19:01;11.90;99.90
4183;DHT22;2105;52.300;9.182;2024-02-15T03:21:28;11.90;99.90
4183;DHT22;2105;52.300;9.182;2024-02-15T03:23:55;11.90;99.90
4183;DHT22;2105;52.300;9.182;2024-02-15T03:26:29;12.00;99.90
4183;DHT22;2105;52.300;9.182;2024-02-15T03:28:57;12.00;99.90
4183;DHT22;2105;52.300;9.182;2024-02-15T03:31:23;12.00;99.90
4183;DHT22;2105;52.300;9.182;2024-02-15T03:33:51;12.00;99.90
4183;DHT22;2105;52.300;9.182;2024-02-15T03:36:19;12.00;99.90
4183;DHT22;2105;52.300;9.182;2024-02-15T03:38:47;12.00;99.90
4183;DHT22;2105;52.300;9.182;2024-02-15T03:41:13;12.00;99.90
4183;DHT22;2105;52.300;9.182;2024-02-15T03:43:40;12.00;99.90
4183;DHT22;2105;52.300;9.182;2024-02-15T03:46:08;12.00;99.90
4183;DHT22;2105;52.300;9.182;2024-02-15T03:48:37;12.00;99.90
4183;DHT22;2105;52.300;9.182;2024-02-15T03:51:05;11.90;99.90
4183;DHT22;2105;52.300;9.182;2024-02-15T03:53:33;11.90;99.90
4183;DHT22;2105;52.300;9.182;2024-02-15T03:56:03;11.90;99.90
4183;DHT22;2105;52.300;9.182;2024-02-15T03:58:30;11.90;99.90
4183;DHT22;2105;52.300;9.182;2024-02-15T04:00:58;11.90;99.90
4183;DHT22;2105;52.300;9.182;2024-02-15T04:03:25;12.00;99.90
4183;DHT22;2105;52.300;9.182;2024-02-15T04:05:52;12.00;99.90
4183;DHT22;2105;52.300;9.182;2024-02-15T04:08:20;12.00;99.90
4183;DHT22;2105;52.300;9.182;2024-02-15T04:10:46;12.00;99.90
4183;DHT22;2105;52.300;9.182;2024-02-15T04:13:13;12.00;99.90
4183;DHT22;2105;52.300;9.182;2024-02-15T04:15:40;12.00;99.90
4183;DHT22;2105;52.300;9.182;2024-02-15T04:18:09;12.00;99.90
4183;DHT22;2105;52.300;9.182;2024-02-15T04:20:37;12.00;99.90
4183;DHT22;2105;52.300;9.182;2024-02-15T04:23:04;12.00;99.90
4183;DHT22;2105;52.300;9.182;2024-02-15T04:25:32;12.00;99.90
4183;DHT22;2105;52.300;9.182;2024-02-15T04:27:59;12.00;99.90
4183;DHT22;2105;52.300;9.182;2024-02-15T04:30:28;12.00;99.90
4183;DHT22;2105;52.300;9.182;2024-02-15T04:32:55;12.10;99.90
4183;DHT22;2105;52.300;9.182;2024-02-15T04:35:22;12.10;99.90
4183;DHT22;2105;52.300;9.182;2024-02-15T04:37:50;12.10;99.90
4183;DHT22;2105;52.300;9.182;2024-02-15T04:40:18;12.10;99.90
4183;DHT22;2105;52.300;9.182;2024-02-15T04:42:46;12.10;99.90
4183;DHT22;2105;52.300;9.182;2024-02-15T04:45:14;12.10;99.90
4183;DHT22;2105;52.300;9.182;2024-02-15T04:47:40;12.10;99.90
4183;DHT22;2105;52.300;9.182;2024-02-15T04:50:07;12.10;99.90
4183;DHT22;2105;52.300;9.182;2024-02-15T04:52:34;12.20;99.90
4183;DHT22;2105;52.300;9.182;2024-02-15T04:55:01;12.20;99.90
4183;DHT22;2105;52.300;9.182;2024-02-15T04:57:30;12.10;99.90
4183;DHT22;2105;52.300;9.182;2024-02-15T05:00:00;12.10;99.90
4183;DHT22;2105;52.300;9.182;2024-02-15T05:02:27;12.20;99.90
4183;DHT22;2105;52.300;9.182;2024-02-15T05:04:53;12.20;99.90
4183;DHT22;2105;52.300;9.182;2024-02-15T05:07:21;12.10;99.90
4183;DHT22;2105;52.300;9.182;2024-02-15T05:09:48;12.10;99.90
4183;DHT22;2105;52.300;9.182;2024-02-15T05:12:22;12.10;99.90
4183;DHT22;2105;52.300;9.182;2024-02-15T05:14:49;12.20;99.90
4183;DHT22;2105;52.300;9.182;2024-02-15T05:17:17;12.20;99.90
4183;DHT22;2105;52.300;9.182;2024-02-15T05:19:44;12.20;99.90
4183;DHT22;2105;52.300;9.182;2024-02-15T05:22:11;12.20;99.90
4183;DHT22;2105;52.300;9.182;2024-02-15T05:24:39;12.20;99.90
4183;DHT22;2105;52.300;9.182;2024-02-15T05:27:05;12.20;99.90
4183;DHT22;2105;52.300;9.182;2024-02-15T05:29:32;12.20;99.90
4183;DHT22;2105;52.300;9.182;2024-02-15T05:31:59;12.20;99.90
4183;DHT22;2105;52.300;9.182;2024-02-15T05:34:28;12.20;99.90
4183;DHT22;2105;52.300;9.182;2024-02-15T05:36:54;12.30;99.90
4183;DHT22;2105;52.300;9.182;2024-02-15T05:39:21;12.30;99.90
4183;DHT22;2105;52.300;9.182;2024-02-15T05:41:48;12.20;99.90
4183;DHT22;2105;52.300;9.182;2024-02-15T05:44:15;12.20;99.90
4183;DHT22;2105;52.300;9.182;2024-02-15T05:46:44;12.30;99.90
4183;DHT22;2105;52.300;9.182;2024-02-15T05:49:11;12.30;99.90
4183;DHT22;2105;52.300;9.182;2024-02-15T05:51:43;12.20;99.90
4183;DHT22;2105;52.300;9.182;2024-02-15T05:54:10;12.20;99.90
4183;DHT22;2105;52.300;9.182;2024-02-15T05:56:36;12.30;99.90
4183;DHT22;2105;52.300;9.182;2024-02-15T05:59:03;12.20;99.90
4183;DHT22;2105;52.300;9.182;2024-02-15T06:01:35;12.30;99.90
4183;DHT22;2105;52.300;9.182;2024-02-15T06:04:02;12.30;99.90
4183;DHT22;2105;52.300;9.182;2024-02-15T06:06:30;12.30;99.90
4183;DHT22;2105;52.300;9.182;2024-02-15T06:08:58;12.30;99.90
4183;DHT22;2105;52.300;9.182;2024-02-15T06:11:26;12.30;99.90
4183;DHT22;2105;52.300;9.182;2024-02-15T06:13:53;12.30;99.90
4183;DHT22;2105;52.300;9.182;2024-02-15T06:16:19;12.30;99.90
4183;DHT22;2105;52.300;9.182;2024-02-15T06:18:47;12.30;99.90
4183;DHT22;2105;52.300;9.182;2024-02-15T06:21:14;12.30;99.90
4183;DHT22;2105;52.300;9.182;2024-02-15T06:23:40;12.20;99.90
4183;DHT22;2105;52.300;9.182;2024-02-15T06:26:09;12.30;99.90
4183;DHT22;2105;52.300;9.182;2024-02-15T06:28:36;12.20;99.90
4183;DHT22;2105;52.300;9.182;2024-02-15T06:31:21;12.20;99.90
4183;DHT22;2105;52.300;9.182;2024-02-15T06:34:05;12.20;99.90
4183;DHT22;2105;52.300;9.182;2024-02-15T06:36:52;12.20;99.90
4183;DHT22;2105;52.300;9.182;2024-02-15T06:39:36;12.20;99.90
4183;DHT22;2105;52.300;9.182;2024-02-15T06:42:12;12.20;99.90
4183;DHT22;2105;52.300;9.182;2024-02-15T06:44:41;12.20;99.90
4183;DHT22;2105;52.300;9.182;2024-02-15T06:47:08;12.20;99.90
4183;DHT22;2105;52.300;9.182;2024-02-15T06:49:36;12.20;99.90
4183;DHT22;2105;52.300;9.182;2024-02-15T06:52:05;12.20;99.90
4183;DHT22;2105;52.300;9.182;2024-02-15T06:54:33;12.30;99.90
4183;DHT22;2105;52.300;9.182;2024-02-15T06:57:01;12.20;99.90
4183;DHT22;2105;52.300;9.182;2024-02-15T06:59:29;12.20;99.90
4183;DHT22;2105;52.300;9.182;2024-02-15T07:01:57;12.20;99.90
4183;DHT22;2105;52.300;9.182;2024-02-15T07:04:24;12.20;99.90
4183;DHT22;2105;52.300;9.182;2024-02-15T07:06:52;12.20;99.90
4183;DHT22;2105;52.300;9.182;2024-02-15T07:09:20;12.20;99.90
4183;DHT22;2105;52.300;9.182;2024-02-15T07:11:50;12.20;99.90
4183;DHT22;2105;52.300;9.182;2024-02-15T07:14:17;12.20;99.90
4183;DHT22;2105;52.300;9.182;2024-02-15T07:16:46;12.30;99.90
4183;DHT22;2105;52.300;9.182;2024-02-15T07:19:13;12.30;99.90
4183;DHT22;2105;52.300;9.182;2024-02-15T07:21:40;12.30;99.90
4183;DHT22;2105;52.300;9.182;2024-02-15T07:24:07;12.30;99.90
4183;DHT22;2105;52.300;9.182;2024-02-15T07:26:35;12.40;99.90
4183;DHT22;2105;52.300;9.182;2024-02-15T07:29:02;12.40;99.90
4183;DHT22;2105;52.300;9.182;2024-02-15T07:31:31;12.50;99.90
4183;DHT22;2105;52.300;9.182;2024-02-15T07:33:59;12.40;99.90
4183;DHT22;2105;52.300;9.182;2024-02-15T07:36:26;12.40;99.90
4183;DHT22;2105;52.300;9.182;2024-02-15T07:38:54;12.50;99.90
4183;DHT22;2105;52.300;9.182;2024-02-15T07:41:24;12.40;99.90
4183;DHT22;2105;52.300;9.182;2024-02-15T07:43:51;12.50;99.90
4183;DHT22;2105;52.300;9.182;2024-02-15T07:46:21;12.50;99.90
4183;DHT22;2105;52.300;9.182;2024-02-15T07:48:48;12.50;99.90
4183;DHT22;2105;52.300;9.182;2024-02-15T07:51:19;12.60;99.90
4183;DHT22;2105;52.300;9.182;2024-02-15T07:53:46;12.60;99.90
4183;DHT22;2105;52.300;9.182;2024-02-15T07:56:15;12.60;99.90
4183;DHT22;2105;52.300;9.182;2024-02-15T07:58:43;12.70;99.90
4183;DHT22;2105;52.300;9.182;2024-02-15T08:01:12;12.60;99.90
4183;DHT22;2105;52.300;9.182;2024-02-15T08:03:38;12.70;99.90
4183;DHT22;2105;52.300;9.182;2024-02-15T08:06:09;12.70;99.90
4183;DHT22;2105;52.300;9.182;2024-02-15T08:08:40;12.80;99.90
4183;DHT22;2105;52.300;9.182;2024-02-15T08:11:07;12.80;99.90
4183;DHT22;2105;52.300;9.182;2024-02-15T08:13:40;12.90;99.90
4183;DHT22;2105;52.300;9.182;2024-02-15T08:16:07;12.90;99.90
4183;DHT22;2105;52.300;9.182;2024-02-15T08:18:34;12.90;99.90
4183;DHT22;2105;52.300;9.182;2024-02-15T08:21:01;13.00;99.90
4183;DHT22;2105;52.300;9.182;2024-02-15T08:23:28;13.00;99.90
4183;DHT22;2105;52.300;9.182;2024-02-15T08:25:56;13.00;99.90
4183;DHT22;2105;52.300;9.182;2024-02-15T08:28:23;13.10;99.90
4183;DHT22;2105;52.300;9.182;2024-02-15T08:30:52;13.10;99.90
4183;DHT22;2105;52.300;9.182;2024-02-15T08:33:18;13.10;99.90
4183;DHT22;2105;52.300;9.182;2024-02-15T08:35:45;13.10;99.90
4183;DHT22;2105;52.300;9.182;2024-02-15T08:38:12;13.10;99.90
4183;DHT22;2105;52.300;9.182;2024-02-15T08:40:39;13.10;99.90
4183;DHT22;2105;52.300;9.182;2024-02-15T08:43:07;13.20;99.90
4183;DHT22;2105;52.300;9.182;2024-02-15T08:45:33;13.20;99.90
4183;DHT22;2105;52.300;9.182;2024-02-15T08:48:00;13.20;99.90
4183;DHT22;2105;52.300;9.182;2024-02-15T08:50:30;13.20;99.90
4183;DHT22;2105;52.300;9.182;2024-02-15T08:52:57;13.20;99.90
4183;DHT22;2105;52.300;9.182;2024-02-15T08:55:24;13.30;99.90
4183;DHT22;2105;52.300;9.182;2024-02-15T08:57:52;13.20;99.90
4183;DHT22;2105;52.300;9.182;2024-02-15T09:00:21;13.30;99.90
4183;DHT22;2105;52.300;9.182;2024-02-15T09:02:48;13.30;99.90
4183;DHT22;2105;52.300;9.182;2024-02-15T09:05:15;13.30;99.90
4183;DHT22;2105;52.300;9.182;2024-02-15T09:07:43;13.40;99.90
4183;DHT22;2105;52.300;9.182;2024-02-15T09:10:13;13.40;99.90
4183;DHT22;2105;52.300;9.182;2024-02-15T09:12:43;13.40;99.90
4183;DHT22;2105;52.300;9.182;2024-02-15T09:15:12;13.40;99.90
4183;DHT22;2105;52.300;9.182;2024-02-15T09:17:41;13.40;99.90
4183;DHT22;2105;52.300;9.182;2024-02-15T09:20:10;13.40;99.90
4183;DHT22;2105;52.300;9.182;2024-02-15T09:22:40;13.40;99.90
4183;DHT22;2105;52.300;9.182;2024-02-15T09:25:08;13.40;99.90
4183;DHT22;2105;52.300;9.182;2024-02-15T09:27:35;13.30;99.90
4183;DHT22;2105;52.300;9.182;2024-02-15T09:30:02;13.30;99.90
4183;DHT22;2105;52.300;9.182;2024-02-15T09:32:33;13.30;99.90
4183;DHT22;2105;52.300;9.182;2024-02-15T09:35:01;13.30;99.90
4183;DHT22;2105;52.300;9.182;2024-02-15T09:37:28;13.30;99.90
4183;DHT22;2105;52.300;9.182;2024-02-15T09:39:58;13.20;99.90
4183;DHT22;2105;52.300;9.182;2024-02-15T09:42:30;13.20;99.90
4183;DHT22;2105;52.300;9.182;2024-02-15T09:44:59;13.20;99.90
4183;DHT22;2105;52.300;9.182;2024-02-15T09:47:30;13.20;99.90
4183;DHT22;2105;52.300;9.182;2024-02-15T09:50:01;13.20;99.90
4183;DHT22;2105;52.300;9.182;2024-02-15T09:52:29;13.10;99.90
4183;DHT22;2105;52.300;9.182;2024-02-15T09:54:58;13.20;99.90
4183;DHT22;2105;52.300;9.182;2024-02-15T09:57:27;13.20;99.90
4183;DHT22;2105;52.300;9.182;2024-02-15T09:59:54;13.10;99.90
4183;DHT22;2105;52.300;9.182;2024-02-15T10:02:22;13.10;99.90
4183;DHT22;2105;52.300;9.182;2024-02-15T10:04:49;13.10;99.90
4183;DHT22;2105;52.300;9.182;2024-02-15T10:07:19;13.00;99.90
4183;DHT22;2105;52.300;9.182;2024-02-15T10:09:46;13.00;99.90
4183;DHT22;2105;52.300;9.182;2024-02-15T10:12:12;13.00;99.90
4183;DHT22;2105;52.300;9.182;2024-02-15T10:14:47;13.00;99.90
4183;DHT22;2105;52.300;9.182;2024-02-15T10:17:15;13.00;99.90
4183;DHT22;2105;52.300;9.182;2024-02-15T10:19:43;13.00;99.90
4183;DHT22;2105;52.300;9.182;2024-02-15T10:22:12;12.90;99.90
4183;DHT22;2105;52.300;9.182;2024-02-15T10:24:41;12.90;99.90
4183;DHT22;2105;52.300;9.182;2024-02-15T10:27:08;12.90;99.90
4183;DHT22;2105;52.300;9.182;2024-02-15T10:29:36;12.90;99.90
4183;DHT22;2105;52.300;9.182;2024-02-15T10:32:06;12.90;99.90
4183;DHT22;2105;52.300;9.182;2024-02-15T10:34:44;12.90;99.90
4183;DHT22;2105;52.300;9.182;2024-02-15T10:37:12;12.90;99.90
4183;DHT22;2105;52.300;9.182;2024-02-15T10:39:40;12.90;99.90
4183;DHT22;2105;52.300;9.182;2024-02-15T10:42:09;12.90;99.90
4183;DHT22;2105;52.300;9.182;2024-02-15T10:44:46;12.90;99.90
4183;DHT22;2105;52.300;9.182;2024-02-15T10:47:16;13.00;99.90
4183;DHT22;2105;52.300;9.182;2024-02-15T10:49:45;13.00;99.90
4183;DHT22;2105;52.300;9.182;2024-02-15T10:52:12;13.00;99.90
4183;DHT22;2105;52.300;9.182;2024-02-15T10:54:46;13.00;99.90
4183;DHT22;2105;52.300;9.182;2024-02-15T10:57:13;13.00;99.90
4183;DHT22;2105;52.300;9.182;2024-02-15T10:59:50;13.00;99.90
4183;DHT22;2105;52.300;9.182;2024-02-15T11:02:30;13.10;99.90
4183;DHT22;2105;52.300;9.182;2024-02-15T11:05:02;13.10;99.90
4183;DHT22;2105;52.300;9.182;2024-02-15T11:07:31;13.10;99.90
4183;DHT22;2105;52.300;9.182;2024-02-15T11:10:00;13.00;99.90
4183;DHT22;2105;52.300;9.182;2024-02-15T11:12:28;13.00;99.90
4183;DHT22;2105;52.300;9.182;2024-02-15T11:14:56;13.00;99.90
4183;DHT22;2105;52.300;9.182;2024-02-15T11:17:44;13.00;99.90
4183;DHT22;2105;52.300;9.182;2024-02-15T11:20:45;13.10;99.90
4183;DHT22;2105;52.300;9.182;2024-02-15T11:23:23;13.10;99.90
4183;DHT22;2105;52.300;9.182;2024-02-15T11:25:52;13.10;99.90
4183;DHT22;2105;52.300;9.182;2024-02-15T11:28:36;13.00;99.90
4183;DHT22;2105;52.300;9.182;2024-02-15T11:31:06;13.10;99.90
4183;DHT22;2105;52.300;9.182;2024-02-15T11:33:34;13.00;99.90
4183;DHT22;2105;52.300;9.182;2024-02-15T11:36:04;13.00;99.90
4183;DHT22;2105;52.300;9.182;2024-02-15T11:38:32;12.90;99.90
4183;DHT22;2105;52.300;9.182;2024-02-15T11:41:04;12.90;99.90
4183;DHT22;2105;52.300;9.182;2024-02-15T11:43:49;12.90;99.90
4183;DHT22;2105;52.300;9.182;2024-02-15T11:46:20;13.00;99.90
4183;DHT22;2105;52.300;9.182;2024-02-15T11:48:50;13.00;99.90
4183;DHT22;2105;52.300;9.182;2024-02-15T11:51:28;13.00;99.90
4183;DHT22;2105;52.300;9.182;2024-02-15T11:54:02;13.00;99.90
4183;DHT22;2105;52.300;9.182;2024-02-15T11:59:17;13.00;99.90
4183;DHT22;2105;52.300;9.182;2024-02-15T12:01:54;13.00;99.90
4183;DHT22;2105;52.300;9.182;2024-02-15T12:04:39;13.00;99.90
4183;DHT22;2105;52.300;9.182;2024-02-15T12:07:23;13.00;99.90
4183;DHT22;2105;52.300;9.182;2024-02-15T12:10:14;13.00;99.90
4183;DHT22;2105;52.300;9.182;2024-02-15T12:13:00;13.00;99.90
4183;DHT22;2105;52.300;9.182;2024-02-15T12:15:59;13.00;99.90
4183;DHT22;2105;52.300;9.182;2024-02-15T12:18:58;13.00;99.90
4183;DHT22;2105;52.300;9.182;2024-02-15T12:21:26;13.10;99.90
4183;DHT22;2105;52.300;9.182;2024-02-15T12:23:53;13.10;99.90
4183;DHT22;2105;52.300;9.182;2024-02-15T12:26:21;13.10;99.90
4183;DHT22;2105;52.300;9.182;2024-02-15T12:28:53;13.10;99.90
4183;DHT22;2105;52.300;9.182;2024-02-15T12:31:21;13.20;99.90
4183;DHT22;2105;52.300;9.182;2024-02-15T12:34:00;13.20;99.90
4183;DHT22;2105;52.300;9.182;2024-02-15T12:36:27;13.20;99.90
4183;DHT22;2105;52.300;9.182;2024-02-15T12:39:01;13.20;99.90
4183;DHT22;2105;52.300;9.182;2024-02-15T12:41:29;13.30;99.90
4183;DHT22;2105;52.300;9.182;2024-02-15T12:43:58;13.20;99.90
4183;DHT22;2105;52.300;9.182;2024-02-15T12:46:26;13.20;99.90
4183;DHT22;2105;52.300;9.182;2024-02-15T12:49:07;13.20;99.90
4183;DHT22;2105;52.300;9.182;2024-02-15T12:51:34;13.30;99.90
4183;DHT22;2105;52.300;9.182;2024-02-15T12:54:08;13.40;99.90
4183;DHT22;2105;52.300;9.182;2024-02-15T12:56:35;13.50;99.90
4183;DHT22;2105;52.300;9.182;2024-02-15T12:59:03;13.60;99.90
4183;DHT22;2105;52.300;9.182;2024-02-15T13:01:30;13.70;99.90
4183;DHT22;2105;52.300;9.182;2024-02-15T13:03:57;13.80;99.90
4183;DHT22;2105;52.300;9.182;2024-02-15T13:06:23;13.80;99.90
4183;DHT22;2105;52.300;9.182;2024-02-15T13:08:50;13.90;99.90
4183;DHT22;2105;52.300;9.182;2024-02-15T13:11:17;14.10;99.90
4183;DHT22;2105;52.300;9.182;2024-02-15T13:13:44;14.30;99.90
4183;DHT22;2105;52.300;9.182;2024-02-15T13:16:12;14.20;99.90
4183;DHT22;2105;52.300;9.182;2024-02-15T13:18:39;14.20;99.90
4183;DHT22;2105;52.300;9.182;2024-02-15T13:21:06;14.10;99.90
4183;DHT22;2105;52.300;9.182;2024-02-15T13:23:33;14.10;99.90
4183;DHT22;2105;52.300;9.182;2024-02-15T13:26:01;14.10;99.90
4183;DHT22;2105;52.300;9.182;2024-02-15T13:28:30;14.10;99.90
4183;DHT22;2105;52.300;9.182;2024-02-15T13:30:56;14.20;99.90
4183;DHT22;2105;52.300;9.182;2024-02-15T13:33:25;14.20;99.90
4183;DHT22;2105;52.300;9.182;2024-02-15T13:35:52;14.20;99.90
4183;DHT22;2105;52.300;9.182;2024-02-15T13:38:18;14.30;99.90
4183;DHT22;2105;52.300;9.182;2024-02-15T13:40:48;14.20;99.90
4183;DHT22;2105;52.300;9.182;2024-02-15T13:43:17;14.20;99.90
4183;DHT22;2105;52.300;9.182;2024-02-15T13:45:44;14.30;99.90
4183;DHT22;2105;52.300;9.182;2024-02-15T13:48:11;14.20;99.90
4183;DHT22;2105;52.300;9.182;2024-02-15T13:50:41;14.20;99.90
4183;DHT22;2105;52.300;9.182;2024-02-15T13:53:09;14.30;99.90
4183;DHT22;2105;52.300;9.182;2024-02-15T13:55:39;14.30;99.90
4183;DHT22;2105;52.300;9.182;2024-02-15T13:58:05;14.30;99.90
4183;DHT22;2105;52.300;9.182;2024-02-15T14:00:33;14.30;99.90
4183;DHT22;2105;52.300;9.182;2024-02-15T14:03:01;14.30;99.90
4183;DHT22;2105;52.300;9.182;2024-02-15T14:05:31;14.30;99.90
4183;DHT22;2105;52.300;9.182;2024-02-15T14:08:01;14.30;99.90
4183;DHT22;2105;52.300;9.182;2024-02-15T14:10:29;14.30;99.90
4183;DHT22;2105;52.300;9.182;2024-02-15T14:12:55;14.30;99.90
4183;DHT22;2105;52.300;9.182;2024-02-15T14:15:23;14.20;99.90
4183;DHT22;2105;52.300;9.182;2024-02-15T14:17:51;14.20;99.90
4183;DHT22;2105;52.300;9.182;2024-02-15T14:20:18;14.10;99.90
4183;DHT22;2105;52.300;9.182;2024-02-15T14:22:47;14.10;99.90
4183;DHT22;2105;52.300;9.182;2024-02-15T14:25:17;14.10;99.90
4183;DHT22;2105;52.300;9.182;2024-02-15T14:27:44;14.20;99.90
4183;DHT22;2105;52.300;9.182;2024-02-15T14:30:13;14.10;99.90
4183;DHT22;2105;52.300;9.182;2024-02-15T14:32:57;14.10;99.90
4183;DHT22;2105;52.300;9.182;2024-02-15T14:35:30;14.10;99.90
4183;DHT22;2105;52.300;9.182;2024-02-15T14:38:00;14.10;99.90
4183;DHT22;2105;52.300;9.182;2024-02-15T14:40:32;14.10;99.90
4183;DHT22;2105;52.300;9.182;2024-02-15T14:42:59;14.10;99.90
4183;DHT22;2105;52.300;9.182;2024-02-15T14:45:26;14.20;99.90
4183;DHT22;2105;52.300;9.182;2024-02-15T14:47:53;14.20;99.90
4183;DHT22;2105;52.300;9.182;2024-02-15T14:50:20;14.30;99.90
4183;DHT22;2105;52.300;9.182;2024-02-15T14:52:49;14.30;99.90
4183;DHT22;2105;52.300;9.182;2024-02-15T14:55:17;14.30;99.90
4183;DHT22;2105;52.300;9.182;2024-02-15T14:57:45;14.30;99.90
4183;DHT22;2105;52.300;9.182;2024-02-15T15:00:14;14.30;99.90
4183;DHT22;2105;52.300;9.182;2024-02-15T15:02:43;14.20;99.90
4183;DHT22;2105;52.300;9.182;2024-02-15T15:05:09;14.20;99.90
4183;DHT22;2105;52.300;9.182;2024-02-15T15:07:54;14.20;99.90
4183;DHT22;2105;52.300;9.182;2024-02-15T15:10:38;14.10;99.90
4183;DHT22;2105;52.300;9.182;2024-02-15T15:13:23;14.20;99.90
4183;DHT22;2105;52.300;9.182;2024-02-15T15:15:51;14.20;99.90
4183;DHT22;2105;52.300;9.182;2024-02-15T15:18:17;14.10;99.90
4183;DHT22;2105;52.300;9.182;2024-02-15T15:20:44;14.10;99.90
4183;DHT22;2105;52.300;9.182;2024-02-15T15:23:11;14.10;99.90
4183;DHT22;2105;52.300;9.182;2024-02-15T15:25:39;14.10;99.90
4183;DHT22;2105;52.300;9.182;2024-02-15T15:28:06;14.20;99.90
4183;DHT22;2105;52.300;9.182;2024-02-15T15:30:34;14.20;99.90
4183;DHT22;2105;52.300;9.182;2024-02-15T15:33:01;14.20;99.90
4183;DHT22;2105;52.300;9.182;2024-02-15T15:35:28;14.10;99.90
4183;DHT22;2105;52.300;9.182;2024-02-15T15:37:55;13.90;99.90
4183;DHT22;2105;52.300;9.182;2024-02-15T15:40:23;13.80;99.90
4183;DHT22;2105;52.300;9.182;2024-02-15T15:42:49;13.80;99.90
4183;DHT22;2105;52.300;9.182;2024-02-15T15:45:16;13.80;99.90
4183;DHT22;2105;52.300;9.182;2024-02-15T15:47:45;13.80;99.90
4183;DHT22;2105;52.300;9.182;2024-02-15T15:50:11;13.70;99.90
4183;DHT22;2105;52.300;9.182;2024-02-15T15:52:40;13.70;99.90
4183;DHT22;2105;52.300;9.182;2024-02-15T15:55:10;13.60;99.90
4183;DHT22;2105;52.300;9.182;2024-02-15T15:57:38;13.60;99.90
4183;DHT22;2105;52.300;9.182;2024-02-15T16:00:07;13.60;99.90
4183;DHT22;2105;52.300;9.182;2024-02-15T16:02:40;13.50;99.90
4183;DHT22;2105;52.300;9.182;2024-02-15T16:05:12;13.50;99.90
4183;DHT22;2105;52.300;9.182;2024-02-15T16:07:39;13.40;99.90
4183;DHT22;2105;52.300;9.182;2024-02-15T16:10:09;13.40;99.90
4183;DHT22;2105;52.300;9.182;2024-02-15T16:12:37;13.30;99.90
4183;DHT22;2105;52.300;9.182;2024-02-15T16:15:04;13.30;99.90
4183;DHT22;2105;52.300;9.182;2024-02-15T16:17:33;13.20;99.90